Time;durP1;ratioP1;P1;durP2;ratioP2;P2;SDS_P1;SDS_P2;PMS_P1;PMS_P2;Temp;Humidity;BMP_temperature;BMP_pressure;BME280_temperature;BME280_humidity;BME280_pressure;Samples;Min_cycle;Max_cycle;Signal;HPM_P1;HPM_P2
2022/10/14 00:00:12;;;;;;;11.05;6.15;;;12.80;99.90;;;;;;5075514;28;20101;-77
2022/10/14 00:02:38;;;;;;;10.45;5.53;;;12.80;99.90;;;;;;5093963;28;20047;-77
2022/10/14 00:05:04;;;;;;;10.18;5.72;;;12.80;99.90;;;;;;5094189;28;20036;-77
2022/10/14 00:07:29;;;;;;;7.53;5.65;;;12.70;99.90;;;;;;5087192;28;20098;-77
2022/10/14 00:09:55;;;;;;;10.55;6.35;;;12.70;99.90;;;;;;5094260;28;20092;-77
2022/10/14 00:12:21;;;;;;;10.25;6.97;;;12.70;99.90;;;;;;5092909;28;20031;-77
2022/10/14 00:14:46;;;;;;;9.38;6.30;;;12.60;99.90;;;;;;5093863;28;20052;-77
2022/10/14 00:17:12;;;;;;;10.35;6.60;;;12.70;99.90;;;;;;5092580;28;20104;-77
2022/10/14 00:19:37;;;;;;;9.48;6.13;;;12.60;99.90;;;;;;5093827;28;20047;-77
2022/10/14 00:22:03;;;;;;;10.15;6.15;;;12.60;99.90;;;;;;5075486;28;20092;-77
2022/10/14 00:24:28;;;;;;;10.82;6.10;;;12.60;99.90;;;;;;5087309;28;20092;-77
2022/10/14 00:26:54;;;;;;;7.53;6.22;;;12.60;99.90;;;;;;5091208;28;20035;-77
2022/10/14 00:29:20;;;;;;;9.23;5.85;;;12.60;99.90;;;;;;5092721;28;20426;-77
2022/10/14 00:31:46;;;;;;;8.05;6.13;;;12.50;99.90;;;;;;5093395;28;20028;-77
2022/10/14 00:34:14;;;;;;;11.10;5.97;;;12.50;99.90;;;;;;5093086;28;20141;-77
2022/10/14 00:36:40;;;;;;;9.65;6.20;;;12.50;99.90;;;;;;5093014;28;20034;-77
2022/10/14 00:39:06;;;;;;;8.57;6.20;;;12.50;99.90;;;;;;5093414;28;20039;-76
2022/10/14 00:41:33;;;;;;;7.70;6.43;;;12.40;99.90;;;;;;5086282;28;20040;-76
2022/10/14 00:44:14;;;;;;;7.28;6.55;;;12.40;99.90;;;;;;5093570;28;20529;-77
2022/10/14 00:46:48;;;;;;;13.02;6.60;;;12.40;99.90;;;;;;5092828;28;20032;-77
2022/10/14 00:49:19;;;;;;;12.15;6.40;;;12.40;99.90;;;;;;5074133;28;20059;-77
2022/10/14 00:51:56;;;;;;;14.80;6.75;;;12.40;99.90;;;;;;5066090;28;20028;-77
2022/10/14 00:54:28;;;;;;;7.32;5.60;;;12.40;99.90;;;;;;5092652;28;20039;-76
2022/10/14 00:56:54;;;;;;;12.00;6.18;;;12.40;99.90;;;;;;5091787;28;20111;-77
2022/10/14 00:59:20;;;;;;;9.57;5.43;;;12.40;99.90;;;;;;5079133;28;20115;-77
2022/10/14 01:01:46;;;;;;;11.57;6.15;;;12.40;99.90;;;;;;5074853;28;20032;-77
2022/10/14 01:04:11;;;;;;;15.52;5.68;;;12.40;99.90;;;;;;5092439;28;20073;-77
2022/10/14 01:06:54;;;;;;;11.68;6.10;;;12.40;99.90;;;;;;5092937;28;20082;-76
2022/10/14 01:09:37;;;;;;;7.30;5.30;;;12.50;99.90;;;;;;5074338;28;20073;-77
2022/10/14 01:12:25;;;;;;;10.95;5.72;;;12.50;99.90;;;;;;5092539;28;20024;-77
2022/10/14 01:15:03;;;;;;;10.30;6.22;;;12.50;99.90;;;;;;5087075;28;20519;-77
2022/10/14 01:18:12;;;;;;;7.70;6.18;;;12.50;99.90;;;;;;5091594;28;20543;-76
2022/10/14 01:20:53;;;;;;;7.93;6.40;;;12.50;99.90;;;;;;5092218;28;20028;-77
2022/10/14 01:23:39;;;;;;;9.50;6.25;;;12.50;99.90;;;;;;5091315;28;20032;-77
2022/10/14 01:26:23;;;;;;;8.93;6.43;;;12.50;99.90;;;;;;5022862;28;20028;-77
2022/10/14 01:29:19;;;;;;;7.65;5.85;;;12.60;99.90;;;;;;5080286;28;20028;-77
2022/10/14 01:31:49;;;;;;;12.18;7.07;;;12.60;99.90;;;;;;5090530;28;20522;-77
2022/10/14 01:34:23;;;;;;;10.45;7.07;;;12.60;99.90;;;;;;5066711;28;20115;-76
2022/10/14 01:36:56;;;;;;;8.85;6.95;;;12.70;99.90;;;;;;5078393;28;20072;-77
2022/10/14 01:39:40;;;;;;;8.82;6.38;;;12.70;99.90;;;;;;5091471;28;20110;-77
2022/10/14 01:42:20;;;;;;;13.38;7.05;;;12.70;99.90;;;;;;5091873;28;20074;-76
2022/10/14 01:44:53;;;;;;;7.57;6.13;;;12.70;99.90;;;;;;5092579;28;20024;-77
2022/10/14 01:47:20;;;;;;;10.75;6.15;;;12.70;99.90;;;;;;5091213;28;20036;-76
2022/10/14 01:50:03;;;;;;;13.02;7.03;;;12.80;99.90;;;;;;5089327;28;20048;-76
2022/10/14 01:52:36;;;;;;;10.10;7.10;;;12.80;99.90;;;;;;5088016;28;20032;-76
2022/10/14 01:55:06;;;;;;;11.98;7.18;;;12.80;99.90;;;;;;5092658;28;20024;-76
2022/10/14 01:57:33;;;;;;;;;;;12.80;99.90;;;;;;5091493;28;20132;-77
2022/10/14 02:00:00;;;;;;;9.10;7.80;;;12.80;99.90;;;;;;5092269;28;19923;-77
2022/10/14 02:02:26;;;;;;;9.10;6.65;;;12.90;99.90;;;;;;5090385;28;20081;-77
2022/10/14 02:04:51;;;;;;;15.38;7.38;;;12.80;99.90;;;;;;5091987;28;20376;-76
2022/10/14 02:07:28;;;;;;;12.80;7.97;;;12.90;99.90;;;;;;5072807;28;20119;-77
2022/10/14 02:10:07;;;;;;;15.88;7.90;;;12.80;99.90;;;;;;5086160;28;20030;-77
2022/10/14 02:12:43;;;;;;;10.83;7.80;;;12.80;99.90;;;;;;5090422;28;20047;-77
2022/10/14 02:15:17;;;;;;;17.17;9.18;;;12.80;99.90;;;;;;5091317;28;20802;-77
2022/10/14 02:18:12;;;;;;;12.18;8.25;;;12.70;99.90;;;;;;5091845;28;20036;-76
2022/10/14 02:20:50;;;;;;;11.05;8.10;;;12.60;99.90;;;;;;5091143;28;20503;-78
2022/10/14 02:23:25;;;;;;;11.65;8.27;;;12.60;99.90;;;;;;5090840;28;20032;-76
2022/10/14 02:25:56;;;;;;;15.00;9.60;;;12.50;99.90;;;;;;5085414;28;20024;-77
2022/10/14 02:28:25;;;;;;;13.05;8.80;;;12.50;99.90;;;;;;5087378;28;20095;-76
2022/10/14 02:30:55;;;;;;;12.68;8.73;;;12.40;99.90;;;;;;5091581;28;20073;-77
2022/10/14 02:33:25;;;;;;;11.80;8.95;;;12.40;99.90;;;;;;5090691;28;20035;-77
2022/10/14 02:35:52;;;;;;;11.63;9.02;;;12.40;99.90;;;;;;5091741;28;20358;-77
2022/10/14 02:38:19;;;;;;;19.13;10.07;;;12.30;99.90;;;;;;5090706;28;20435;-76
2022/10/14 02:40:48;;;;;;;17.05;10.65;;;12.30;99.90;;;;;;5091488;28;20110;-76
2022/10/14 02:43:14;;;;;;;15.05;8.55;;;12.30;99.90;;;;;;5086358;28;20393;-77
2022/10/14 02:45:42;;;;;;;13.95;9.70;;;12.20;99.90;;;;;;5072952;28;20035;-76
2022/10/14 02:48:09;;;;;;;14.27;8.45;;;12.20;99.90;;;;;;5091243;28;20047;-76
2022/10/14 02:50:35;;;;;;;12.98;9.23;;;12.20;99.90;;;;;;5091052;28;20127;-76
2022/10/14 02:53:01;;;;;;;13.77;10.23;;;12.20;99.90;;;;;;5091739;28;20027;-76
2022/10/14 02:55:26;;;;;;;13.52;9.43;;;12.20;99.90;;;;;;5072097;28;20036;-77
2022/10/14 02:57:52;;;;;;;13.95;9.75;;;12.20;99.90;;;;;;5091643;28;20032;-77
2022/10/14 03:00:18;;;;;;;13.88;10.48;;;12.20;99.90;;;;;;5085554;28;20381;-76
2022/10/14 03:02:44;;;;;;;19.17;10.07;;;12.20;99.90;;;;;;5090711;28;20032;-76
2022/10/14 03:05:09;;;;;;;17.42;10.70;;;12.10;99.90;;;;;;5094782;28;20481;-76
2022/10/14 03:07:35;;;;;;;15.77;10.82;;;12.20;99.90;;;;;;5095207;28;20030;-76
2022/10/14 03:10:01;;;;;;;14.23;10.57;;;12.20;99.90;;;;;;5096134;28;20067;-78
2022/10/14 03:12:27;;;;;;;15.10;9.93;;;12.20;99.90;;;;;;5094788;28;20031;-78
2022/10/14 03:14:53;;;;;;;10.45;9.38;;;12.10;99.90;;;;;;5095786;28;20481;-77
2022/10/14 03:17:19;;;;;;;16.75;10.63;;;12.10;99.90;;;;;;5093264;28;20036;-77
2022/10/14 03:19:44;;;;;;;15.18;11.25;;;12.10;99.90;;;;;;5071502;28;20131;-78
2022/10/14 03:22:10;;;;;;;18.95;11.50;;;12.10;99.90;;;;;;5094007;28;20086;-78
2022/10/14 03:24:36;;;;;;;14.60;11.07;;;12.10;99.90;;;;;;5094985;28;20103;-77
2022/10/14 03:27:01;;;;;;;16.20;10.98;;;12.10;99.90;;;;;;5094637;28;20028;-77
2022/10/14 03:29:27;;;;;;;15.35;12.30;;;12.10;99.90;;;;;;5093507;28;20047;-77
2022/10/14 03:31:52;;;;;;;19.00;12.15;;;12.10;99.90;;;;;;5094035;28;20433;-77
2022/10/14 03:34:18;;;;;;;20.30;12.13;;;12.10;99.90;;;;;;5065915;28;20044;-77
2022/10/14 03:36:43;;;;;;;14.85;11.05;;;12.10;99.90;;;;;;5092575;28;20020;-77
2022/10/14 03:39:10;;;;;;;21.48;12.90;;;12.10;99.90;;;;;;5094324;28;20032;-77
2022/10/14 03:41:36;;;;;;;20.45;13.40;;;12.10;99.90;;;;;;5093979;28;20036;-77
2022/10/14 03:44:02;;;;;;;16.75;12.38;;;12.10;99.90;;;;;;5094530;28;20040;-77
2022/10/14 03:46:28;;;;;;;19.85;12.23;;;12.10;99.90;;;;;;5093902;28;20855;-77
2022/10/14 03:48:53;;;;;;;15.18;11.55;;;12.10;99.90;;;;;;5074593;28;20078;-77
2022/10/14 03:51:19;;;;;;;15.68;11.43;;;12.00;99.90;;;;;;5082253;28;20025;-78
2022/10/14 03:53:45;;;;;;;19.58;12.13;;;12.00;99.90;;;;;;5093938;28;20039;-77
2022/10/14 03:56:10;;;;;;;19.10;12.45;;;12.00;99.90;;;;;;5093624;28;20020;-76
2022/10/14 03:58:36;;;;;;;17.38;12.23;;;12.00;99.90;;;;;;5094314;28;20028;-77
2022/10/14 04:01:02;;;;;;;16.45;12.80;;;12.00;99.90;;;;;;5093484;28;20416;-77
2022/10/14 04:03:27;;;;;;;14.70;11.88;;;11.90;99.90;;;;;;5093811;28;20031;-77
2022/10/14 04:05:53;;;;;;;14.98;11.32;;;11.90;99.90;;;;;;5086659;28;20581;-77
2022/10/14 04:08:18;;;;;;;19.02;11.90;;;11.90;99.90;;;;;;5084830;28;20020;-77
2022/10/14 04:10:44;;;;;;;17.63;11.68;;;11.90;99.90;;;;;;5093557;28;20032;-77
2022/10/14 04:13:10;;;;;;;16.40;11.55;;;11.90;99.90;;;;;;5093751;28;20028;-77
2022/10/14 04:15:36;;;;;;;17.33;13.13;;;11.90;99.90;;;;;;5092220;28;20027;-77
2022/10/14 04:18:02;;;;;;;17.70;13.30;;;11.90;99.90;;;;;;5093874;28;20106;-82
2022/10/14 04:20:28;;;;;;;25.08;14.57;;;11.90;99.90;;;;;;5089238;28;20126;-77
2022/10/14 04:22:53;;;;;;;22.45;15.30;;;11.90;99.90;;;;;;5081846;28;20063;-78
2022/10/14 04:25:19;;;;;;;19.83;13.88;;;11.90;99.90;;;;;;5091048;28;20020;-77
2022/10/14 04:27:45;;;;;;;20.50;15.05;;;11.90;99.90;;;;;;5094012;28;20097;-77
2022/10/14 04:30:11;;;;;;;25.60;15.63;;;11.90;99.90;;;;;;5074972;28;20460;-77
2022/10/14 04:32:36;;;;;;;24.42;15.57;;;11.90;99.90;;;;;;5093843;28;20020;-77
2022/10/14 04:35:04;;;;;;;23.08;15.88;;;11.90;99.90;;;;;;5076409;28;20073;-76
2022/10/14 04:37:30;;;;;;;27.30;15.35;;;11.90;99.90;;;;;;5093644;28;20210;-77
2022/10/14 04:39:55;;;;;;;23.77;16.45;;;11.90;99.90;;;;;;5089332;28;20429;-77
2022/10/14 04:42:21;;;;;;;22.48;16.23;;;11.90;99.90;;;;;;5075154;28;20032;-77
2022/10/14 04:44:46;;;;;;;21.80;15.93;;;11.90;99.90;;;;;;5094754;28;20107;-78
2022/10/14 04:47:12;;;;;;;21.38;16.02;;;12.00;99.90;;;;;;5093770;28;20023;-78
2022/10/14 04:49:38;;;;;;;22.63;15.32;;;12.00;99.90;;;;;;5095228;28;20056;-81
2022/10/14 04:52:03;;;;;;;23.73;14.20;;;12.00;99.90;;;;;;5100258;28;20078;-78
2022/10/14 04:54:29;;;;;;;21.75;14.75;;;12.00;99.90;;;;;;5102014;28;20016;-78
2022/10/14 04:56:55;;;;;;;23.10;14.13;;;12.00;99.90;;;;;;5077199;28;20381;-81
2022/10/14 04:59:20;;;;;;;18.27;14.88;;;12.00;99.90;;;;;;5098053;28;20028;-78
2022/10/14 05:01:46;;;;;;;25.70;15.77;;;12.00;99.90;;;;;;5098830;28;20032;-78
2022/10/14 05:04:12;;;;;;;20.23;15.10;;;12.00;99.90;;;;;;5100234;28;20024;-77
2022/10/14 05:06:37;;;;;;;20.13;13.88;;;12.00;99.90;;;;;;5095406;28;20058;-78
2022/10/14 05:09:04;;;;;;;20.52;14.27;;;12.00;99.90;;;;;;5093336;28;20416;-78
2022/10/14 05:11:30;;;;;;;16.85;13.40;;;12.10;99.90;;;;;;5089252;28;20083;-77
2022/10/14 05:13:55;;;;;;;19.30;13.50;;;12.10;99.90;;;;;;5086676;28;20029;-78
2022/10/14 05:16:21;;;;;;;17.13;13.20;;;12.10;99.90;;;;;;5083914;28;20369;-78
2022/10/14 05:18:46;;;;;;;17.25;12.82;;;12.10;99.90;;;;;;5086513;28;20081;-78
2022/10/14 05:21:12;;;;;;;21.77;13.15;;;12.10;99.90;;;;;;5083563;28;20040;-78
2022/10/14 05:23:38;;;;;;;17.02;12.43;;;12.20;99.90;;;;;;5086283;28;20091;-77
2022/10/14 05:26:03;;;;;;;20.08;13.43;;;12.20;99.90;;;;;;5082667;28;20476;-77
2022/10/14 05:28:29;;;;;;;19.50;11.07;;;12.20;99.90;;;;;;5081825;28;20089;-78
2022/10/14 05:30:55;;;;;;;19.40;12.30;;;12.20;99.90;;;;;;5084211;28;20035;-77
2022/10/14 05:33:21;;;;;;;20.83;11.60;;;12.20;99.90;;;;;;5072520;28;20028;-78
2022/10/14 05:35:47;;;;;;;18.90;13.35;;;12.20;99.90;;;;;;5091891;28;20468;-75
2022/10/14 05:38:13;;;;;;;22.52;15.02;;;12.30;99.90;;;;;;5091694;28;20346;-78
2022/10/14 05:40:39;;;;;;;23.30;14.02;;;12.30;99.90;;;;;;5092105;28;20060;-78
2022/10/14 05:43:05;;;;;;;24.50;13.90;;;12.40;99.90;;;;;;5092372;28;20432;-79
2022/10/14 05:45:30;;;;;;;20.30;13.65;;;12.40;99.90;;;;;;5091608;28;20031;-78
2022/10/14 05:47:56;;;;;;;19.27;12.77;;;12.50;99.90;;;;;;5071155;28;20435;-77
2022/10/14 05:50:22;;;;;;;25.27;13.38;;;12.40;99.90;;;;;;5091163;28;20032;-78
2022/10/14 05:52:47;;;;;;;18.10;11.70;;;12.40;99.90;;;;;;5092141;28;20443;-78
2022/10/14 05:55:13;;;;;;;18.77;12.20;;;12.50;99.90;;;;;;5090735;28;20065;-79
2022/10/14 05:57:40;;;;;;;18.20;12.80;;;12.50;99.90;;;;;;5092402;28;20028;-78
2022/10/14 06:00:06;;;;;;;18.52;13.20;;;12.50;99.90;;;;;;5092146;28;20020;-77
2022/10/14 06:02:32;;;;;;;18.85;11.80;;;12.50;99.90;;;;;;5090870;28;20028;-77
2022/10/14 06:04:57;;;;;;;24.02;12.93;;;12.60;99.90;;;;;;5091278;28;20084;-77
2022/10/14 06:07:23;;;;;;;20.90;12.60;;;12.60;99.90;;;;;;5079238;28;20039;-76
2022/10/14 06:09:48;;;;;;;23.30;12.98;;;12.60;99.90;;;;;;5092347;28;20032;-78
2022/10/14 06:12:14;;;;;;;23.30;13.98;;;12.60;99.90;;;;;;5094868;28;20024;-77
2022/10/14 06:14:40;;;;;;;17.13;12.73;;;12.60;99.90;;;;;;5087096;28;20103;-77
2022/10/14 06:17:06;;;;;;;21.25;13.65;;;12.70;99.90;;;;;;5084989;28;20095;-76
2022/10/14 06:19:32;;;;;;;20.00;13.23;;;12.60;99.90;;;;;;5073021;28;20023;-77
2022/10/14 06:21:57;;;;;;;21.38;13.32;;;12.70;99.90;;;;;;5083639;28;20476;-77
2022/10/14 06:24:23;;;;;;;21.92;14.52;;;12.70;99.90;;;;;;5091118;28;20116;-77
2022/10/14 06:26:49;;;;;;;20.73;14.73;;;12.70;99.90;;;;;;5090734;28;20858;-76
2022/10/14 06:29:16;;;;;;;17.95;13.77;;;12.70;99.90;;;;;;5091223;28;20035;-77
2022/10/14 06:31:41;;;;;;;21.33;13.48;;;12.70;99.90;;;;;;5091069;28;20020;-77
2022/10/14 06:34:07;;;;;;;18.50;12.30;;;12.80;99.90;;;;;;5085332;28;20111;-77
2022/10/14 06:36:34;;;;;;;20.20;13.27;;;12.80;99.90;;;;;;5090561;28;20043;-76
2022/10/14 06:38:59;;;;;;;14.65;11.85;;;12.80;99.90;;;;;;5093995;28;20027;-78
2022/10/14 06:41:25;;;;;;;17.08;12.05;;;12.80;99.90;;;;;;5088507;28;20032;-78
2022/10/14 06:43:51;;;;;;;18.38;13.13;;;12.80;99.90;;;;;;5095905;28;20488;-77
2022/10/14 06:46:17;;;;;;;17.02;12.00;;;12.80;99.90;;;;;;5094314;28;20032;-78
2022/10/14 06:48:43;;;;;;;17.55;12.23;;;12.90;99.90;;;;;;5095138;28;20059;-77
2022/10/14 06:51:09;;;;;;;16.52;12.48;;;12.90;99.90;;;;;;5094769;28;20389;-76
2022/10/14 06:53:34;;;;;;;15.65;11.90;;;13.00;99.90;;;;;;5095022;28;20066;-77
2022/10/14 06:56:03;;;;;;;17.00;13.02;;;13.00;99.90;;;;;;5095091;28;20028;-77
2022/10/14 06:58:29;;;;;;;18.88;11.35;;;13.00;99.90;;;;;;5095140;28;20032;-78
2022/10/14 07:00:54;;;;;;;18.55;12.25;;;13.10;99.90;;;;;;5094993;28;20055;-78
2022/10/14 07:03:20;;;;;;;17.42;11.40;;;13.20;99.90;;;;;;5094444;28;20028;-78
2022/10/14 07:05:46;;;;;;;13.20;11.48;;;13.20;99.90;;;;;;5095617;28;20024;-78
2022/10/14 07:08:12;;;;;;;12.73;10.82;;;13.30;99.90;;;;;;5094813;28;20028;-78
2022/10/14 07:10:38;;;;;;;14.15;10.20;;;13.30;99.90;;;;;;5094540;28;20032;-76
2022/10/14 07:13:03;;;;;;;15.50;10.55;;;13.40;99.90;;;;;;5095590;28;20119;-76
2022/10/14 07:15:29;;;;;;;14.18;10.35;;;13.40;99.90;;;;;;5094757;28;20024;-77
2022/10/14 07:17:54;;;;;;;14.15;10.05;;;13.40;99.90;;;;;;5077722;28;20056;-77
2022/10/14 07:20:20;;;;;;;13.38;9.27;;;13.40;99.90;;;;;;5072266;28;20035;-76
2022/10/14 07:22:45;;;;;;;16.00;10.40;;;13.40;99.90;;;;;;5086395;28;20112;-77
2022/10/14 07:25:11;;;;;;;17.98;10.18;;;13.40;99.90;;;;;;5092998;28;20384;-77
2022/10/14 07:27:37;;;;;;;12.13;9.68;;;13.40;99.90;;;;;;5093469;28;20039;-77
2022/10/14 07:30:04;;;;;;;16.83;9.98;;;13.40;99.90;;;;;;5095537;28;20388;-78
2022/10/14 07:32:30;;;;;;;13.93;9.00;;;13.50;99.90;;;;;;5094450;28;20020;-78
2022/10/14 07:34:55;;;;;;;14.35;9.45;;;13.50;99.90;;;;;;5089455;28;20054;-77
2022/10/14 07:37:21;;;;;;;13.82;8.57;;;13.60;99.90;;;;;;5092614;28;20089;-77
2022/10/14 07:39:47;;;;;;;11.52;8.40;;;13.70;99.90;;;;;;5090357;28;20032;-77
2022/10/14 07:42:13;;;;;;;18.98;9.25;;;13.80;99.90;;;;;;5092687;28;20168;-77
2022/10/14 07:44:38;;;;;;;13.55;8.88;;;14.00;99.90;;;;;;5094538;28;20117;-78
2022/10/14 07:47:04;;;;;;;14.82;8.48;;;14.00;99.90;;;;;;5094418;28;20035;-77
2022/10/14 07:49:31;;;;;;;9.73;7.13;;;14.20;99.90;;;;;;5074529;28;20051;-77
2022/10/14 07:51:56;;;;;;;8.70;6.97;;;14.30;99.90;;;;;;5094371;28;20107;-77
2022/10/14 07:54:24;;;;;;;12.23;7.60;;;14.40;99.90;;;;;;5093802;28;20457;-77
2022/10/14 07:56:50;;;;;;;13.38;7.68;;;14.50;99.90;;;;;;5094308;28;20138;-77
2022/10/14 07:59:18;;;;;;;8.85;7.60;;;14.60;99.90;;;;;;5093531;28;20024;-77
2022/10/14 08:01:48;;;;;;;14.48;7.80;;;14.60;99.90;;;;;;5093684;28;20117;-77
2022/10/14 08:04:14;;;;;;;9.25;7.05;;;14.60;99.90;;;;;;5093296;28;20024;-77
2022/10/14 08:06:40;;;;;;;11.38;7.32;;;14.70;99.90;;;;;;5086129;28;20115;-78
2022/10/14 08:09:08;;;;;;;14.07;8.35;;;14.80;99.90;;;;;;5089455;28;20567;-78
2022/10/14 08:11:34;;;;;;;15.50;8.23;;;14.80;99.90;;;;;;5085433;28;20380;-77
2022/10/14 08:14:00;;;;;;;14.25;8.73;;;14.80;99.90;;;;;;5087445;28;20472;-78
2022/10/14 08:16:29;;;;;;;13.27;9.60;;;14.90;99.90;;;;;;5083533;28;20020;-78
2022/10/14 08:18:57;;;;;;;16.92;10.52;;;14.90;99.90;;;;;;5080228;28;20465;-77
2022/10/14 08:21:23;;;;;;;13.80;9.15;;;15.00;99.90;;;;;;5079626;28;20518;-78
2022/10/14 08:23:49;;;;;;;20.23;10.48;;;14.90;99.90;;;;;;5086082;28;20028;-78
2022/10/14 08:26:22;;;;;;;16.48;10.35;;;14.90;99.90;;;;;;5092172;28;20028;-75
2022/10/14 08:28:48;;;;;;;18.45;10.73;;;14.90;99.90;;;;;;5093198;28;20028;-76
2022/10/14 08:31:14;;;;;;;13.38;8.98;;;14.80;99.90;;;;;;5092731;28;20055;-75
2022/10/14 08:33:40;;;;;;;15.60;10.65;;;14.80;99.90;;;;;;5092401;28;20035;-75
2022/10/14 08:36:06;;;;;;;14.70;10.07;;;14.80;99.90;;;;;;5092418;28;20021;-77
2022/10/14 08:38:32;;;;;;;16.50;9.40;;;14.90;99.90;;;;;;5092730;28;20028;-77
2022/10/14 08:41:10;;;;;;;16.00;8.85;;;14.90;99.90;;;;;;5092628;28;20122;-77
2022/10/14 08:43:42;;;;;;;13.85;9.52;;;15.10;99.90;;;;;;5080640;28;20028;-77
2022/10/14 08:46:33;;;;;;;14.20;8.63;;;15.20;99.90;;;;;;5090489;28;20036;-76
2022/10/14 08:49:09;;;;;;;12.85;8.63;;;15.30;99.90;;;;;;5036421;28;20056;-78
2022/10/14 08:51:35;;;;;;;13.02;8.60;;;15.30;99.90;;;;;;5089316;28;20043;-77
2022/10/14 08:54:09;;;;;;;19.25;9.95;;;15.40;99.90;;;;;;5095387;28;20024;-80
2022/10/14 08:56:36;;;;;;;13.15;8.13;;;15.50;99.90;;;;;;5046042;28;20497;-77
2022/10/14 08:59:11;;;;;;;20.75;8.35;;;15.70;99.90;;;;;;5076587;28;20430;-78
2022/10/14 09:02:06;;;;;;;10.95;7.18;;;15.90;99.90;;;;;;5086947;28;20072;-78
2022/10/14 09:04:34;;;;;;;12.80;7.40;;;16.00;99.90;;;;;;5091028;28;20504;-77
2022/10/14 09:07:01;;;;;;;10.00;6.20;;;16.10;99.90;;;;;;5092307;28;20370;-77
2022/10/14 09:09:44;;;;;;;8.05;5.90;;;16.10;99.90;;;;;;5091921;28;20487;-77
2022/10/14 09:12:16;;;;;;;8.75;4.72;;;16.10;99.90;;;;;;5088907;28;20054;-77
2022/10/14 09:14:46;;;;;;;7.60;4.88;;;16.10;99.90;;;;;;5092883;28;20028;-76
2022/10/14 09:17:19;;;;;;;7.63;6.03;;;16.20;99.90;;;;;;5072820;28;20028;-76
2022/10/14 09:19:57;;;;;;;8.35;5.05;;;16.30;99.90;;;;;;5089125;28;20029;-76
2022/10/14 09:22:23;;;;;;;5.38;4.70;;;16.40;99.90;;;;;;5091393;28;20099;-77
2022/10/14 09:24:48;;;;;;;6.25;4.30;;;16.50;99.90;;;;;;5092648;28;20111;-76
2022/10/14 09:27:22;;;;;;;9.65;4.55;;;16.50;99.90;;;;;;5089170;28;20092;-77
2022/10/14 09:29:52;;;;;;;7.90;4.47;;;16.60;99.90;;;;;;5092717;28;20032;-77
2022/10/14 09:32:30;;;;;;;;;;;16.60;99.90;;;;;;5091690;28;20595;-77
2022/10/14 09:34:57;;;;;;;6.63;3.90;;;16.60;99.90;;;;;;5091779;28;20436;-77
2022/10/14 09:37:41;;;;;;;6.70;4.00;;;16.70;99.90;;;;;;5091435;28;20020;-78
2022/10/14 09:40:29;;;;;;;5.43;4.07;;;16.60;99.90;;;;;;5084833;28;20069;-77
2022/10/14 09:43:02;;;;;;;8.77;4.00;;;16.70;99.90;;;;;;5087527;28;20119;-76
2022/10/14 09:45:44;;;;;;;5.90;4.22;;;16.80;99.90;;;;;;5080871;28;20042;-77
2022/10/14 09:48:33;;;;;;;7.63;4.97;;;16.80;99.90;;;;;;5086916;28;20048;-75
2022/10/14 09:51:01;;;;;;;10.23;4.57;;;16.90;99.90;;;;;;5083878;28;20044;-79
2022/10/14 09:53:45;;;;;;;7.57;3.40;;;16.90;99.90;;;;;;5090511;28;20477;-77
2022/10/14 09:56:11;;;;;;;7.35;3.92;;;16.90;99.90;;;;;;5088254;28;20028;-78
2022/10/14 09:58:57;;;;;;;12.95;4.28;;;16.90;99.90;;;;;;5092290;28;20042;-76
2022/10/14 10:01:26;;;;;;;7.45;4.32;;;17.10;99.90;;;;;;5089561;28;20106;-77
2022/10/14 10:03:53;;;;;;;7.03;4.38;;;17.30;99.90;;;;;;5090927;28;20046;-75
2022/10/14 10:06:24;;;;;;;4.80;4.30;;;17.50;99.90;;;;;;5089852;28;20032;-76
2022/10/14 10:08:53;;;;;;;7.50;4.25;;;17.70;99.90;;;;;;5091356;28;20077;-76
2022/10/14 10:11:27;;;;;;;11.98;4.88;;;17.90;99.90;;;;;;5071411;28;20473;-76
2022/10/14 10:13:53;;;;;;;10.00;4.40;;;18.10;99.90;;;;;;5091434;28;20028;-76
2022/10/14 10:16:23;;;;;;;5.45;4.45;;;18.20;99.90;;;;;;5089866;28;20107;-76
2022/10/14 10:18:50;;;;;;;7.88;4.20;;;18.40;99.90;;;;;;5091298;28;20032;-76
2022/10/14 10:21:23;;;;;;;11.57;4.72;;;18.60;99.90;;;;;;5090438;28;20032;-75
2022/10/14 10:24:02;;;;;;;9.52;5.00;;;18.70;99.90;;;;;;5090178;28;20024;-76
2022/10/14 10:26:32;;;;;;;8.97;4.83;;;18.90;99.90;;;;;;5089567;28;20111;-75
2022/10/14 10:29:01;;;;;;;8.93;4.70;;;18.90;99.90;;;;;;5091424;28;20028;-77
2022/10/14 10:31:33;;;;;;;8.52;4.60;;;18.90;99.90;;;;;;5068841;28;20165;-76
2022/10/14 10:34:00;;;;;;;9.68;4.55;;;18.90;99.90;;;;;;5069475;28;20032;-76
2022/10/14 10:36:34;;;;;;;7.55;3.88;;;18.90;99.90;;;;;;5083658;28;20027;-75
2022/10/14 10:39:27;;;;;;;7.30;4.28;;;18.90;99.90;;;;;;5082173;28;20044;-74
2022/10/14 10:42:18;;;;;;;9.30;4.78;;;19.00;99.90;;;;;;5090077;28;20036;-74
2022/10/14 10:44:43;;;;;;;8.38;4.57;;;19.00;99.90;;;;;;5094128;28;20056;-74
2022/10/14 10:47:19;;;;;;;8.73;4.38;;;19.10;99.90;;;;;;5090216;28;20028;-74
2022/10/14 10:50:08;;;;;;;6.82;4.45;;;19.10;99.90;;;;;;5087316;28;20464;-74
2022/10/14 10:52:52;;;;;;;8.07;3.80;;;19.10;99.90;;;;;;5089997;28;20035;-73
2022/10/14 10:55:36;;;;;;;6.53;4.10;;;19.00;99.90;;;;;;5089574;28;20029;-73
2022/10/14 10:58:01;;;;;;;9.90;4.20;;;19.00;99.90;;;;;;5062165;28;20100;-74
2022/10/14 11:00:31;;;;;;;11.70;4.60;;;19.00;99.90;;;;;;5077056;28;20033;-74
2022/10/14 11:03:29;;;;;;;10.98;4.38;;;19.00;99.90;;;;;;5080835;28;20028;-73
2022/10/14 11:06:08;;;;;;;6.72;3.08;;;18.90;99.90;;;;;;4989134;28;20599;-75
2022/10/14 11:12:19;;;;;;;7.60;3.33;;;18.80;99.90;;;;;;4988952;28;20042;-75
2022/10/14 11:15:05;;;;;;;10.77;3.25;;;18.60;99.90;;;;;;4989010;28;20388;-75
2022/10/14 11:17:48;;;;;;;4.35;3.20;;;18.50;99.90;;;;;;4987327;28;20559;-74
2022/10/14 11:20:25;;;;;;;9.10;3.30;;;18.40;99.90;;;;;;4987843;28;20089;-75
2022/10/14 11:23:06;;;;;;;11.20;3.38;;;18.30;99.90;;;;;;4988731;28;20162;-75
2022/10/14 11:25:52;;;;;;;7.28;3.63;;;18.00;99.90;;;;;;4990862;28;20030;-74
2022/10/14 11:28:26;;;;;;;5.22;3.33;;;17.50;99.90;;;;;;4985777;28;20476;-74
2022/10/14 11:31:15;;;;;;;6.07;3.47;;;17.10;99.90;;;;;;4992275;28;20042;-75
2022/10/14 11:33:57;;;;;;;5.40;3.95;;;16.80;99.90;;;;;;4992209;28;20024;-75
2022/10/14 11:37:02;;;;;;;9.25;4.03;;;16.70;99.90;;;;;;4989504;28;20041;-75
2022/10/14 11:39:36;;;;;;;6.38;4.25;;;16.60;99.90;;;;;;4974893;28;20039;-75
2022/10/14 11:42:34;;;;;;;12.27;4.30;;;16.70;99.90;;;;;;5007093;28;20040;-75
2022/10/14 11:45:32;;;;;;;6.53;3.50;;;16.80;99.90;;;;;;5092434;28;20035;-75
2022/10/14 11:48:22;;;;;;;4.72;3.53;;;16.90;99.90;;;;;;5092860;28;20117;-75
2022/10/14 11:50:53;;;;;;;6.45;2.88;;;17.00;99.90;;;;;;5092637;28;20083;-75
2022/10/14 11:53:34;;;;;;;4.35;3.03;;;17.20;99.90;;;;;;5092854;28;20112;-75
2022/10/14 11:56:16;;;;;;;6.18;3.30;;;17.30;99.90;;;;;;5084691;28;20440;-74
2022/10/14 11:58:45;;;;;;;7.68;3.05;;;17.60;99.90;;;;;;5093624;28;20063;-75
2022/10/14 12:01:13;;;;;;;4.53;2.40;;;17.80;99.90;;;;;;5092418;28;20115;-75
2022/10/14 12:04:03;;;;;;;6.32;2.67;;;18.00;99.90;;;;;;5093270;28;20484;-75
2022/10/14 12:06:52;;;;;;;;;;;18.10;99.90;;;;;;5090245;28;20685;-75
2022/10/14 12:09:24;;;;;;;5.13;2.78;;;18.20;99.90;;;;;;5072650;28;19986;-75
2022/10/14 12:11:58;;;;;;;5.75;3.00;;;18.40;99.90;;;;;;5084942;28;20024;-75
2022/10/14 12:14:29;;;;;;;8.35;3.53;;;18.40;99.90;;;;;;5079730;28;20020;-74
2022/10/14 12:16:57;;;;;;;6.72;3.08;;;18.50;99.90;;;;;;5086472;28;20020;-75
2022/10/14 12:19:26;;;;;;;7.65;3.08;;;18.60;99.90;;;;;;5087923;28;20027;-75
2022/10/14 12:22:12;;;;;;;6.63;2.78;;;18.60;99.90;;;;;;5092078;28;20032;-75
2022/10/14 12:24:42;;;;;;;6.00;2.63;;;18.60;99.90;;;;;;5092076;28;20043;-74
2022/10/14 12:27:11;;;;;;;5.27;2.57;;;18.80;99.90;;;;;;5081888;28;20093;-74
2022/10/14 12:29:41;;;;;;;3.00;2.70;;;18.80;99.90;;;;;;5087663;28;20274;-74
2022/10/14 12:32:19;;;;;;;6.22;2.67;;;18.90;99.90;;;;;;5090030;28;20115;-74
2022/10/14 12:34:47;;;;;;;5.68;2.15;;;19.00;99.90;;;;;;5092610;28;20027;-74
2022/10/14 12:37:33;;;;;;;3.15;2.30;;;19.20;99.90;;;;;;5090458;28;20016;-75
2022/10/14 12:40:02;;;;;;;6.45;2.13;;;19.40;99.90;;;;;;5083313;28;20078;-74
2022/10/14 12:42:29;;;;;;;4.35;2.20;;;19.50;99.90;;;;;;5090838;28;20481;-74
2022/10/14 12:45:00;;;;;;;8.82;2.67;;;19.70;99.90;;;;;;5097488;28;20430;-74
2022/10/14 12:47:36;;;;;;;6.32;2.22;;;19.80;99.90;;;;;;5091450;28;20031;-73
2022/10/14 12:50:17;;;;;;;4.38;1.95;;;19.80;99.90;;;;;;5091931;28;20047;-74
2022/10/14 12:52:47;;;;;;;4.57;1.90;;;19.70;99.90;;;;;;5092493;28;20069;-74
2022/10/14 12:55:20;;;;;;;4.03;1.85;;;19.70;99.90;;;;;;5091751;28;20085;-74
2022/10/14 12:57:55;;;;;;;6.57;1.60;;;19.70;99.90;;;;;;5086762;28;20060;-76